<?xml version='1.0' encoding='UTF-8'?><gpx version="1.1" creator="JPX - https://github.com/jenetics/jpx" xmlns="http://www.topografix.com/GPX/1/1"><trk><trkseg><trkpt lat="46.07627341564333" lon="12.597899509688531"><ele>163.0</ele><time>2026-04-25T12:54:18Z</time></trkpt><trkpt lat="46.076344055251646" lon="12.59791827616316"><ele>163.0</ele><time>2026-04-25T12:54:21Z</time></trkpt><trkpt lat="46.07640568282099" lon="12.597948168509449"><ele>163.0</ele><time>2026-04-25T12:54:26Z</time></trkpt><trkpt lat="46.07647519622057" lon="12.597982836950038"><ele>163.0</ele><time>2026-04-25T12:54:42Z</time></trkpt><trkpt lat="46.07653845651616" lon="12.598003945768284"><ele>163.0</ele><time>2026-04-25T12:54:48Z</time></trkpt><trkpt lat="46.07660444888872" lon="12.59800929677343"><ele>163.0</ele><time>2026-04-25T12:54:55Z</time></trkpt><trkpt lat="46.07666590106886" lon="12.597944688754348"><ele>163.0</ele><time>2026-04-25T12:55:01Z</time></trkpt><trkpt lat="46.076669055997414" lon="12.597853868677854"><ele>163.2857142857143</ele><time>2026-04-25T12:55:10Z</time></trkpt><trkpt lat="46.07670195605582" lon="12.597772660008989"><ele>163.57142857142856</ele><time>2026-04-25T12:55:18Z</time></trkpt><trkpt lat="46.07674347521642" lon="12.597687507782265"><ele>163.85714285714286</ele><time>2026-04-25T12:55:24Z</time></trkpt><trkpt lat="46.076804462978075" lon="12.597657096216718"><ele>164.14285714285717</ele><time>2026-04-25T12:55:29Z</time></trkpt><trkpt lat="46.07687598357972" lon="12.597680731382152"><ele>164.42857142857144</ele><time>2026-04-25T12:55:36Z</time></trkpt><trkpt lat="46.0769386125826" lon="12.597694240734594"><ele>164.71428571428572</ele><time>2026-04-25T12:55:41Z</time></trkpt><trkpt lat="46.077006680180105" lon="12.59770491904821"><ele>165.0</ele><time>2026-04-25T12:55:47Z</time></trkpt><trkpt lat="46.07707432974196" lon="12.597694292254092"><ele>165.00000000000003</ele><time>2026-04-25T12:55:53Z</time></trkpt><trkpt lat="46.077134335634454" lon="12.5976420043702"><ele>165.0</ele><time>2026-04-25T12:56:01Z</time></trkpt><trkpt lat="46.07718317170676" lon="12.597559859072971"><ele>165.0</ele><time>2026-04-25T12:56:07Z</time></trkpt><trkpt lat="46.07722345827437" lon="12.597480047100362"><ele>165.0</ele><time>2026-04-25T12:56:14Z</time></trkpt><trkpt lat="46.077275167876515" lon="12.597393358684837"><ele>165.0</ele><time>2026-04-25T12:56:20Z</time></trkpt><trkpt lat="46.07731544811842" lon="12.597302990752878"><ele>165.00000000000003</ele><time>2026-04-25T12:56:26Z</time></trkpt><trkpt lat="46.07736557010923" lon="12.597247897972293"><ele>165.0</ele><time>2026-04-25T12:56:32Z</time></trkpt><trkpt lat="46.077438573120936" lon="12.597234180553446"><ele>165.00000000000003</ele><time>2026-04-25T12:56:39Z</time></trkpt><trkpt lat="46.07749249891459" lon="12.597293357634038"><ele>165.0</ele><time>2026-04-25T12:56:45Z</time></trkpt><trkpt lat="46.07747695877954" lon="12.597390679393037"><ele>165.0</ele><time>2026-04-25T12:56:55Z</time></trkpt><trkpt lat="46.077438533115654" lon="12.597485475723188"><ele>165.0</ele><time>2026-04-25T12:57:00Z</time></trkpt><trkpt lat="46.077401538632046" lon="12.597567229907478"><ele>165.0</ele><time>2026-04-25T12:57:04Z</time></trkpt><trkpt lat="46.077362365513416" lon="12.597642250004363"><ele>165.00000000000003</ele><time>2026-04-25T12:57:08Z</time></trkpt><trkpt lat="46.07731505046513" lon="12.597716248623817"><ele>165.0</ele><time>2026-04-25T12:57:14Z</time></trkpt><trkpt lat="46.077260289828935" lon="12.597766923811946"><ele>165.00000000000003</ele><time>2026-04-25T12:57:19Z</time></trkpt><trkpt lat="46.077200884784254" lon="12.59781909217506"><ele>165.0</ele><time>2026-04-25T12:57:24Z</time></trkpt><trkpt lat="46.077138445146566" lon="12.597859570041035"><ele>165.0</ele><time>2026-04-25T12:57:29Z</time></trkpt><trkpt lat="46.07707425033235" lon="12.597853426692994"><ele>165.0</ele><time>2026-04-25T12:57:35Z</time></trkpt><trkpt lat="46.07700977426205" lon="12.597847255448077"><ele>165.0</ele><time>2026-04-25T12:57:41Z</time></trkpt><trkpt lat="46.07693752230502" lon="12.597859395073147"><ele>165.00000000000003</ele><time>2026-04-25T12:57:46Z</time></trkpt><trkpt lat="46.0768760797659" lon="12.597891736672647"><ele>165.0</ele><time>2026-04-25T12:57:50Z</time></trkpt><trkpt lat="46.076840623758244" lon="12.597978024856241"><ele>164.85714285714286</ele><time>2026-04-25T12:57:57Z</time></trkpt><trkpt lat="46.076888007851444" lon="12.5980455612111"><ele>164.71428571428572</ele><time>2026-04-25T12:58:04Z</time></trkpt><trkpt lat="46.07694821372799" lon="12.59810731464797"><ele>164.57142857142856</ele><time>2026-04-25T12:58:12Z</time></trkpt><trkpt lat="46.077012422741795" lon="12.59812269455937"><ele>164.42857142857144</ele><time>2026-04-25T12:58:16Z</time></trkpt><trkpt lat="46.07708591511558" lon="12.598139646081055"><ele>164.28571428571428</ele><time>2026-04-25T12:58:20Z</time></trkpt><trkpt lat="46.077154569361305" lon="12.598158110024"><ele>164.14285714285714</ele><time>2026-04-25T12:58:25Z</time></trkpt><trkpt lat="46.0772164829098" lon="12.59818476757036"><ele>164.0</ele><time>2026-04-25T12:58:30Z</time></trkpt><trkpt lat="46.07727698801561" lon="12.598214684056316"><ele>163.99999999999997</ele><time>2026-04-25T12:58:35Z</time></trkpt><trkpt lat="46.077344573944124" lon="12.598249432486233"><ele>164.0</ele><time>2026-04-25T12:58:41Z</time></trkpt><trkpt lat="46.07741431884512" lon="12.59828273507573"><ele>164.0</ele><time>2026-04-25T12:58:47Z</time></trkpt><trkpt lat="46.07748107987438" lon="12.598330980077234"><ele>164.0</ele><time>2026-04-25T12:58:54Z</time></trkpt><trkpt lat="46.07753994749746" lon="12.598367461451573"><ele>164.0</ele><time>2026-04-25T12:58:59Z</time></trkpt><trkpt lat="46.077599368934784" lon="12.598399824673027"><ele>163.99999999999997</ele><time>2026-04-25T12:59:04Z</time></trkpt><trkpt lat="46.077667874771436" lon="12.59841461770145"><ele>164.0</ele><time>2026-04-25T12:59:09Z</time></trkpt><trkpt lat="46.07774004354441" lon="12.59841136392608"><ele>164.28571428571428</ele><time>2026-04-25T12:59:17Z</time></trkpt><trkpt lat="46.07779487702509" lon="12.598366291803513"><ele>164.57142857142856</ele><time>2026-04-25T12:59:22Z</time></trkpt><trkpt lat="46.0777956399241" lon="12.598269188316676"><ele>164.85714285714283</ele><time>2026-04-25T12:59:27Z</time></trkpt><trkpt lat="46.07774274348519" lon="12.598194246484498"><ele>165.14285714285714</ele><time>2026-04-25T12:59:32Z</time></trkpt><trkpt lat="46.077679933909955" lon="12.59816997693522"><ele>165.42857142857144</ele><time>2026-04-25T12:59:38Z</time></trkpt><trkpt lat="46.07760670316753" lon="12.598147083482484"><ele>165.7142857142857</ele><time>2026-04-25T12:59:44Z</time></trkpt><trkpt lat="46.077542160631054" lon="12.598125989436006"><ele>166.0</ele><time>2026-04-25T12:59:49Z</time></trkpt><trkpt lat="46.07747983391887" lon="12.598109705803912"><ele>166.0</ele><time>2026-04-25T12:59:55Z</time></trkpt><trkpt lat="46.0774219277529" lon="12.59806195543829"><ele>166.0</ele><time>2026-04-25T13:00:12.999Z</time></trkpt><trkpt lat="46.0773664104025" lon="12.598014164950591"><ele>166.0</ele><time>2026-04-25T13:00:15.999Z</time></trkpt><trkpt lat="46.0774158123623" lon="12.597924860977942"><ele>166.0</ele><time>2026-04-25T13:00:24.999Z</time></trkpt><trkpt lat="46.07748469555199" lon="12.59790315562469"><ele>166.0</ele><time>2026-04-25T13:00:30.999Z</time></trkpt><trkpt lat="46.0775504383324" lon="12.59790716739147"><ele>166.0</ele><time>2026-04-25T13:00:35.999Z</time></trkpt><trkpt lat="46.07762317323608" lon="12.597926759760153"><ele>166.0</ele><time>2026-04-25T13:00:41.999Z</time></trkpt><trkpt lat="46.07770097279449" lon="12.597956195280752"><ele>166.0</ele><time>2026-04-25T13:00:47.999Z</time></trkpt><trkpt lat="46.077768732677995" lon="12.597996863729707"><ele>166.0</ele><time>2026-04-25T13:00:53.999Z</time></trkpt><trkpt lat="46.07781444602421" lon="12.598074257586063"><ele>166.0</ele><time>2026-04-25T13:00:59.999Z</time></trkpt><trkpt lat="46.07786149258227" lon="12.598163709406599"><ele>166.0</ele><time>2026-04-25T13:01:05.999Z</time></trkpt><trkpt lat="46.077890165398365" lon="12.598245891212182"><ele>166.0</ele><time>2026-04-25T13:01:10.999Z</time></trkpt><trkpt lat="46.07793246619847" lon="12.59831880672831"><ele>166.0</ele><time>2026-04-25T13:01:15.999Z</time></trkpt><trkpt lat="46.07797655636076" lon="12.598386303252765"><ele>166.0</ele><time>2026-04-25T13:01:21.999Z</time></trkpt><trkpt lat="46.078030796126534" lon="12.598442323621768"><ele>166.0</ele><time>2026-04-25T13:01:27Z</time></trkpt><trkpt lat="46.07809107582818" lon="12.598481013785953"><ele>166.0</ele><time>2026-04-25T13:01:33Z</time></trkpt><trkpt lat="46.07815849544676" lon="12.598508748769486"><ele>166.0</ele><time>2026-04-25T13:01:38Z</time></trkpt><trkpt lat="46.078223061379305" lon="12.598510622669142"><ele>166.0</ele><time>2026-04-25T13:01:43Z</time></trkpt><trkpt lat="46.07828665189024" lon="12.598496464203897"><ele>166.0</ele><time>2026-04-25T13:01:48Z</time></trkpt><trkpt lat="46.078349784952174" lon="12.598476570377455"><ele>166.0</ele><time>2026-04-25T13:01:54Z</time></trkpt><trkpt lat="46.07841300246021" lon="12.59845264537163"><ele>166.0</ele><time>2026-04-25T13:02:00Z</time></trkpt><trkpt lat="46.078466228973674" lon="12.598397701638179"><ele>166.14285714285714</ele><time>2026-04-25T13:02:06Z</time></trkpt><trkpt lat="46.078515269057384" lon="12.598335385176142"><ele>166.2857142857143</ele><time>2026-04-25T13:02:16Z</time></trkpt><trkpt lat="46.078546628822814" lon="12.598219630370538"><ele>166.42857142857144</ele><time>2026-04-25T13:02:21Z</time></trkpt><trkpt lat="46.07857263207833" lon="12.598125585262167"><ele>166.57142857142856</ele><time>2026-04-25T13:02:26Z</time></trkpt><trkpt lat="46.07858215189772" lon="12.598014196654539"><ele>166.71428571428572</ele><time>2026-04-25T13:02:32Z</time></trkpt><trkpt lat="46.078596013878574" lon="12.597921920927508"><ele>166.85714285714286</ele><time>2026-04-25T13:02:34.999Z</time></trkpt><trkpt lat="46.07860752897863" lon="12.597826277286352"><ele>167.0</ele><time>2026-04-25T13:02:38.999Z</time></trkpt><trkpt lat="46.0786368337844" lon="12.597730308717914"><ele>167.0</ele><time>2026-04-25T13:02:46.999Z</time></trkpt><trkpt lat="46.07866252062834" lon="12.597638462585504"><ele>167.0</ele><time>2026-04-25T13:02:51Z</time></trkpt><trkpt lat="46.078670307684476" lon="12.597538356276555"><ele>167.0</ele><time>2026-04-25T13:02:57Z</time></trkpt><trkpt lat="46.07865974886154" lon="12.597431140240873"><ele>167.0</ele><time>2026-04-25T13:03:03Z</time></trkpt><trkpt lat="46.07861621552588" lon="12.597341224449515"><ele>167.0</ele><time>2026-04-25T13:03:09Z</time></trkpt><trkpt lat="46.07855300772002" lon="12.5973532403243"><ele>167.0</ele><time>2026-04-25T13:03:15Z</time></trkpt><trkpt lat="46.07853119248395" lon="12.597468489588914"><ele>167.0</ele><time>2026-04-25T13:03:21Z</time></trkpt><trkpt lat="46.078504584573146" lon="12.59756101339264"><ele>167.0</ele><time>2026-04-25T13:03:26Z</time></trkpt><trkpt lat="46.078486289234576" lon="12.597662542386816"><ele>167.0</ele><time>2026-04-25T13:03:31Z</time></trkpt><trkpt lat="46.0784822045642" lon="12.597772816972324"><ele>167.0</ele><time>2026-04-25T13:03:37Z</time></trkpt><trkpt lat="46.078471890596795" lon="12.597870029849458"><ele>167.0</ele><time>2026-04-25T13:03:43Z</time></trkpt><trkpt lat="46.07845432684551" lon="12.597967871378168"><ele>167.0</ele><time>2026-04-25T13:03:49Z</time></trkpt><trkpt lat="46.07842909387982" lon="12.598064283157683"><ele>167.0</ele><time>2026-04-25T13:03:55Z</time></trkpt><trkpt lat="46.07840444516804" lon="12.598150974914264"><ele>167.0</ele><time>2026-04-25T13:04:00Z</time></trkpt><trkpt lat="46.07836457560393" lon="12.598227311658176"><ele>167.0</ele><time>2026-04-25T13:04:05Z</time></trkpt><trkpt lat="46.07829644488249" lon="12.598228572491982"><ele>167.0</ele><time>2026-04-25T13:04:14Z</time></trkpt><trkpt lat="46.07827905346058" lon="12.598129818814439"><ele>167.0</ele><time>2026-04-25T13:04:20Z</time></trkpt><trkpt lat="46.078264503626166" lon="12.598030628575147"><ele>167.0</ele><time>2026-04-25T13:04:24Z</time></trkpt><trkpt lat="46.07827567674512" lon="12.59791690357668"><ele>167.0</ele><time>2026-04-25T13:04:29Z</time></trkpt><trkpt lat="46.078291794945585" lon="12.597828394304862"><ele>167.0</ele><time>2026-04-25T13:04:34Z</time></trkpt><trkpt lat="46.0783171110652" lon="12.59772667435735"><ele>167.0</ele><time>2026-04-25T13:04:40Z</time></trkpt><trkpt lat="46.07832758208881" lon="12.597629006502189"><ele>167.0</ele><time>2026-04-25T13:04:45Z</time></trkpt><trkpt lat="46.07834581089321" lon="12.597536689631465"><ele>167.0</ele><time>2026-04-25T13:04:50Z</time></trkpt><trkpt lat="46.07836282902275" lon="12.597443839175556"><ele>167.0</ele><time>2026-04-25T13:04:57Z</time></trkpt><trkpt lat="46.0783756406334" lon="12.597352614101254"><ele>167.0</ele><time>2026-04-25T13:05:03Z</time></trkpt><trkpt lat="46.078407618620574" lon="12.59726731591032"><ele>167.0</ele><time>2026-04-25T13:05:11Z</time></trkpt><trkpt lat="46.07846016206211" lon="12.59721052536292"><ele>167.0</ele><time>2026-04-25T13:05:16Z</time></trkpt><trkpt lat="46.078518352279005" lon="12.597165847009656"><ele>167.0</ele><time>2026-04-25T13:05:22Z</time></trkpt><trkpt lat="46.0785832425528" lon="12.597159473918342"><ele>167.0</ele><time>2026-04-25T13:05:31Z</time></trkpt><trkpt lat="46.07865111835028" lon="12.597173996095078"><ele>167.0</ele><time>2026-04-25T13:05:35Z</time></trkpt><trkpt lat="46.07870437111912" lon="12.597243567531276"><ele>167.0</ele><time>2026-04-25T13:05:41Z</time></trkpt><trkpt lat="46.07873582565263" lon="12.597333885552322"><ele>167.0</ele><time>2026-04-25T13:05:47Z</time></trkpt><trkpt lat="46.07875939812495" lon="12.597430414403918"><ele>167.0</ele><time>2026-04-25T13:05:53Z</time></trkpt><trkpt lat="46.078764899160895" lon="12.597525524119611"><ele>167.0</ele><time>2026-04-25T13:05:58Z</time></trkpt><trkpt lat="46.07877104164672" lon="12.597632840238482"><ele>167.0</ele><time>2026-04-25T13:06:03Z</time></trkpt><trkpt lat="46.07875742978844" lon="12.597726039527506"><ele>167.14285714285714</ele><time>2026-04-25T13:06:08Z</time></trkpt><trkpt lat="46.07874018235585" lon="12.59783588647326"><ele>167.28571428571428</ele><time>2026-04-25T13:06:15Z</time></trkpt><trkpt lat="46.07873282659544" lon="12.597931279182076"><ele>167.42857142857144</ele><time>2026-04-25T13:06:22Z</time></trkpt><trkpt lat="46.07875351758517" lon="12.598031334593191"><ele>167.57142857142856</ele><time>2026-04-25T13:06:29Z</time></trkpt><trkpt lat="46.07880884461987" lon="12.598088838620177"><ele>167.71428571428572</ele><time>2026-04-25T13:06:40.001Z</time></trkpt><trkpt lat="46.07887440065362" lon="12.598051636505035"><ele>167.85714285714286</ele><time>2026-04-25T13:06:48Z</time></trkpt><trkpt lat="46.07894113084002" lon="12.598010077660367"><ele>168.0</ele><time>2026-04-25T13:06:53Z</time></trkpt><trkpt lat="46.0789953979509" lon="12.597950464422246"><ele>168.0</ele><time>2026-04-25T13:06:58Z</time></trkpt><trkpt lat="46.079053091324816" lon="12.59788476947287"><ele>168.0</ele><time>2026-04-25T13:07:05Z</time></trkpt><trkpt lat="46.07911130297247" lon="12.597824187023125"><ele>168.0</ele><time>2026-04-25T13:07:12Z</time></trkpt><trkpt lat="46.079172994915226" lon="12.597761998107554"><ele>168.0</ele><time>2026-04-25T13:07:18Z</time></trkpt><trkpt lat="46.07922330681063" lon="12.597688956523946"><ele>168.0</ele><time>2026-04-25T13:07:26Z</time></trkpt><trkpt lat="46.0792704427735" lon="12.597609867109675"><ele>168.0</ele><time>2026-04-25T13:07:39Z</time></trkpt><trkpt lat="46.07927692539547" lon="12.597518736279596"><ele>168.0</ele><time>2026-04-25T13:07:45Z</time></trkpt><trkpt lat="46.07924452355431" lon="12.597435837840457"><ele>167.85714285714286</ele><time>2026-04-25T13:07:49.999Z</time></trkpt><trkpt lat="46.07917645147369" lon="12.597446437048202"><ele>167.71428571428572</ele><time>2026-04-25T13:08:23Z</time></trkpt><trkpt lat="46.079129223469046" lon="12.597523880174538"><ele>167.57142857142856</ele><time>2026-04-25T13:08:29Z</time></trkpt><trkpt lat="46.07908227933991" lon="12.597595840754794"><ele>167.42857142857144</ele><time>2026-04-25T13:08:34Z</time></trkpt><trkpt lat="46.079019016149026" lon="12.59757821072018"><ele>167.28571428571428</ele><time>2026-04-25T13:08:39Z</time></trkpt><trkpt lat="46.07898031629166" lon="12.597501285597172"><ele>167.14285714285714</ele><time>2026-04-25T13:08:45Z</time></trkpt><trkpt lat="46.07894886178389" lon="12.597407856652637"><ele>167.0</ele><time>2026-04-25T13:08:50.999Z</time></trkpt><trkpt lat="46.078923362938575" lon="12.59732463527622"><ele>167.0</ele><time>2026-04-25T13:08:56.999Z</time></trkpt><trkpt lat="46.07890653444659" lon="12.597229524572516"><ele>167.0</ele><time>2026-04-25T13:09:03.999Z</time></trkpt><trkpt lat="46.07885850680694" lon="12.597152224934193"><ele>167.0</ele><time>2026-04-25T13:09:10.999Z</time></trkpt><trkpt lat="46.07881958130171" lon="12.597072615971252"><ele>167.0</ele><time>2026-04-25T13:09:15.999Z</time></trkpt><trkpt lat="46.07877235074051" lon="12.597001690595267"><ele>167.0</ele><time>2026-04-25T13:09:21Z</time></trkpt><trkpt lat="46.07871366621133" lon="12.59695737749006"><ele>167.0</ele><time>2026-04-25T13:09:27Z</time></trkpt><trkpt lat="46.078654178471574" lon="12.596920638029962"><ele>167.0</ele><time>2026-04-25T13:09:33Z</time></trkpt><trkpt lat="46.07858688726085" lon="12.596895095715704"><ele>167.0</ele><time>2026-04-25T13:09:38Z</time></trkpt><trkpt lat="46.07852118124794" lon="12.59687177513657"><ele>167.0</ele><time>2026-04-25T13:09:43Z</time></trkpt><trkpt lat="46.078454804928285" lon="12.596869530680516"><ele>167.0</ele><time>2026-04-25T13:09:48Z</time></trkpt><trkpt lat="46.078390232146916" lon="12.596888926796469"><ele>167.0</ele><time>2026-04-25T13:09:54Z</time></trkpt><trkpt lat="46.078333654558826" lon="12.596936885669404"><ele>167.0</ele><time>2026-04-25T13:10:00Z</time></trkpt><trkpt lat="46.07830057612107" lon="12.597030827081197"><ele>167.0</ele><time>2026-04-25T13:10:05Z</time></trkpt><trkpt lat="46.078278340934936" lon="12.597128780394065"><ele>167.0</ele><time>2026-04-25T13:10:11Z</time></trkpt><trkpt lat="46.07826073113887" lon="12.597231751690389"><ele>166.85714285714286</ele><time>2026-04-25T13:10:16Z</time></trkpt><trkpt lat="46.07824529737452" lon="12.597328570175474"><ele>166.71428571428572</ele><time>2026-04-25T13:10:21Z</time></trkpt><trkpt lat="46.07822635864009" lon="12.597425534239886"><ele>166.57142857142856</ele><time>2026-04-25T13:10:26Z</time></trkpt><trkpt lat="46.07820839416641" lon="12.597521008718529"><ele>166.42857142857144</ele><time>2026-04-25T13:10:31Z</time></trkpt><trkpt lat="46.078185721300265" lon="12.597610277683213"><ele>166.2857142857143</ele><time>2026-04-25T13:10:36Z</time></trkpt><trkpt lat="46.078166098436135" lon="12.59769693386511"><ele>166.14285714285714</ele><time>2026-04-25T13:10:41Z</time></trkpt><trkpt lat="46.07814904083302" lon="12.597796609588064"><ele>166.0</ele><time>2026-04-25T13:10:46Z</time></trkpt><trkpt lat="46.078115027363026" lon="12.597890222775074"><ele>166.0</ele><time>2026-04-25T13:10:52Z</time></trkpt><trkpt lat="46.07807274842831" lon="12.597960829106924"><ele>166.0</ele><time>2026-04-25T13:10:59Z</time></trkpt><trkpt lat="46.07800491122951" lon="12.597963383543204"><ele>166.0</ele><time>2026-04-25T13:11:08Z</time></trkpt><trkpt lat="46.0779542047936" lon="12.597869067075814"><ele>166.0</ele><time>2026-04-25T13:11:15Z</time></trkpt><trkpt lat="46.07793450994835" lon="12.597777672462875"><ele>166.0</ele><time>2026-04-25T13:11:21Z</time></trkpt><trkpt lat="46.07792929875803" lon="12.597672019685307"><ele>166.0</ele><time>2026-04-25T13:11:27Z</time></trkpt><trkpt lat="46.07793192866465" lon="12.597576003946035"><ele>166.0</ele><time>2026-04-25T13:11:32Z</time></trkpt><trkpt lat="46.0779331048315" lon="12.597472633265989"><ele>165.85714285714286</ele><time>2026-04-25T13:11:37Z</time></trkpt><trkpt lat="46.07795330244968" lon="12.597385143869301"><ele>165.71428571428572</ele><time>2026-04-25T13:11:43Z</time></trkpt><trkpt lat="46.07797240527229" lon="12.597289042872186"><ele>165.57142857142858</ele><time>2026-04-25T13:11:49Z</time></trkpt><trkpt lat="46.07799153667991" lon="12.597199492512413"><ele>165.42857142857144</ele><time>2026-04-25T13:11:55Z</time></trkpt><trkpt lat="46.078011627580544" lon="12.597108106172525"><ele>165.28571428571428</ele><time>2026-04-25T13:12:00Z</time></trkpt><trkpt lat="46.078029897836544" lon="12.597008647000303"><ele>165.14285714285717</ele><time>2026-04-25T13:12:05Z</time></trkpt><trkpt lat="46.078052539029514" lon="12.596914276196308"><ele>165.0</ele><time>2026-04-25T13:12:10Z</time></trkpt><trkpt lat="46.0780797511412" lon="12.596812308671717"><ele>165.00000000000003</ele><time>2026-04-25T13:12:16Z</time></trkpt><trkpt lat="46.07810737115215" lon="12.5967236148998"><ele>165.0</ele><time>2026-04-25T13:12:22Z</time></trkpt><trkpt lat="46.07813910953927" lon="12.596645124536142"><ele>165.0</ele><time>2026-04-25T13:12:27Z</time></trkpt><trkpt lat="46.07817203892125" lon="12.596566852886625"><ele>165.0</ele><time>2026-04-25T13:12:32Z</time></trkpt><trkpt lat="46.078208357500266" lon="12.596479658790944"><ele>165.0</ele><time>2026-04-25T13:12:37Z</time></trkpt><trkpt lat="46.078266627926624" lon="12.596398548302645"><ele>165.00000000000003</ele><time>2026-04-25T13:12:43.001Z</time></trkpt><trkpt lat="46.07832786265113" lon="12.596367944903227"><ele>165.0</ele><time>2026-04-25T13:12:48.001Z</time></trkpt><trkpt lat="46.07839288163083" lon="12.596366885980979"><ele>165.42857142857144</ele><time>2026-04-25T13:12:53.001Z</time></trkpt><trkpt lat="46.07845712243245" lon="12.596402589539723"><ele>165.85714285714286</ele><time>2026-04-25T13:12:58.001Z</time></trkpt><trkpt lat="46.07851217899307" lon="12.596450382943015"><ele>166.28571428571428</ele><time>2026-04-25T13:13:03Z</time></trkpt><trkpt lat="46.0785685719719" lon="12.596517092051677"><ele>166.71428571428572</ele><time>2026-04-25T13:13:09Z</time></trkpt><trkpt lat="46.07862470312824" lon="12.596579163118871"><ele>167.14285714285714</ele><time>2026-04-25T13:13:15Z</time></trkpt><trkpt lat="46.07867579836742" lon="12.596645542633313"><ele>167.57142857142858</ele><time>2026-04-25T13:13:20Z</time></trkpt><trkpt lat="46.07872893002991" lon="12.596706695992378"><ele>168.0</ele><time>2026-04-25T13:13:25Z</time></trkpt><trkpt lat="46.07878000145346" lon="12.596765359641733"><ele>168.0</ele><time>2026-04-25T13:13:30Z</time></trkpt><trkpt lat="46.078833094373266" lon="12.596827045795276"><ele>168.0</ele><time>2026-04-25T13:13:37Z</time></trkpt><trkpt lat="46.078889120612814" lon="12.59688046108676"><ele>168.0</ele><time>2026-04-25T13:13:43Z</time></trkpt><trkpt lat="46.07894662400031" lon="12.596931041062508"><ele>168.0</ele><time>2026-04-25T13:13:49Z</time></trkpt><trkpt lat="46.078991017658076" lon="12.59699651701458"><ele>168.0</ele><time>2026-04-25T13:13:56Z</time></trkpt><trkpt lat="46.07905186800642" lon="12.597047937484579"><ele>168.0</ele><time>2026-04-25T13:14:01Z</time></trkpt><trkpt lat="46.07910525672841" lon="12.59709745794121"><ele>168.0</ele><time>2026-04-25T13:14:07Z</time></trkpt><trkpt lat="46.07916359445679" lon="12.597137490498294"><ele>167.85714285714286</ele><time>2026-04-25T13:14:12.001Z</time></trkpt><trkpt lat="46.07922484935288" lon="12.597185648004915"><ele>167.71428571428572</ele><time>2026-04-25T13:14:17.001Z</time></trkpt><trkpt lat="46.07929239123184" lon="12.597184617902302"><ele>167.57142857142856</ele><time>2026-04-25T13:14:24.001Z</time></trkpt><trkpt lat="46.079372890189" lon="12.597174935865256"><ele>167.42857142857144</ele><time>2026-04-25T13:14:29.001Z</time></trkpt><trkpt lat="46.07943644078671" lon="12.597136465570905"><ele>167.28571428571428</ele><time>2026-04-25T13:14:36.001Z</time></trkpt><trkpt lat="46.07947056661085" lon="12.59705104298191"><ele>167.14285714285714</ele><time>2026-04-25T13:14:42.001Z</time></trkpt><trkpt lat="46.07948027176525" lon="12.596958715749834"><ele>167.0</ele><time>2026-04-25T13:14:48.001Z</time></trkpt><trkpt lat="46.079465988669384" lon="12.596854011974592"><ele>167.0</ele><time>2026-04-25T13:14:55.001Z</time></trkpt><trkpt lat="46.07945657713894" lon="12.596747215287618"><ele>167.0</ele><time>2026-04-25T13:15:01.001Z</time></trkpt><trkpt lat="46.07946955171052" lon="12.596627662332745"><ele>167.0</ele><time>2026-04-25T13:15:08.001Z</time></trkpt><trkpt lat="46.079506713004356" lon="12.59655235998721"><ele>167.0</ele><time>2026-04-25T13:15:14.999Z</time></trkpt><trkpt lat="46.079560105973705" lon="12.596492565386416"><ele>167.0</ele><time>2026-04-25T13:15:20.999Z</time></trkpt><trkpt lat="46.07961471544292" lon="12.596436729221837"><ele>167.0</ele><time>2026-04-25T13:15:25.999Z</time></trkpt><trkpt lat="46.07967517500053" lon="12.596374705338906"><ele>167.0</ele><time>2026-04-25T13:15:32.999Z</time></trkpt><trkpt lat="46.07971372409403" lon="12.59630028368889"><ele>167.0</ele><time>2026-04-25T13:15:37.999Z</time></trkpt><trkpt lat="46.07974714106174" lon="12.596210111117996"><ele>167.0</ele><time>2026-04-25T13:15:41.999Z</time></trkpt><trkpt lat="46.07973903221161" lon="12.596097308114103"><ele>167.0</ele><time>2026-04-25T13:15:51Z</time></trkpt><trkpt lat="46.07969526177498" lon="12.596020981124493"><ele>167.0</ele><time>2026-04-25T13:15:57Z</time></trkpt><trkpt lat="46.07966910079729" lon="12.595931230194182"><ele>167.0</ele><time>2026-04-25T13:16:02Z</time></trkpt><trkpt lat="46.07967066526407" lon="12.595838358766368"><ele>167.0</ele><time>2026-04-25T13:16:08Z</time></trkpt><trkpt lat="46.07968569077838" lon="12.595739513013383"><ele>167.0</ele><time>2026-04-25T13:16:13Z</time></trkpt><trkpt lat="46.079746356493395" lon="12.595713369053946"><ele>167.28571428571428</ele><time>2026-04-25T13:16:33Z</time></trkpt><trkpt lat="46.07981284346559" lon="12.5956728981281"><ele>167.57142857142858</ele><time>2026-04-25T13:16:42Z</time></trkpt><trkpt lat="46.079857612409604" lon="12.595607630340725"><ele>167.85714285714286</ele><time>2026-04-25T13:16:46Z</time></trkpt><trkpt lat="46.07991296488819" lon="12.595560162936803"><ele>168.14285714285714</ele><time>2026-04-25T13:16:52Z</time></trkpt><trkpt lat="46.079962625062706" lon="12.595494586591508"><ele>168.42857142857142</ele><time>2026-04-25T13:16:57Z</time></trkpt><trkpt lat="46.07998920553056" lon="12.595402885980151"><ele>168.71428571428572</ele><time>2026-04-25T13:17:02Z</time></trkpt><trkpt lat="46.08000899343645" lon="12.595314532438028"><ele>169.0</ele><time>2026-04-25T13:17:07Z</time></trkpt><trkpt lat="46.079986623173255" lon="12.595227600356647"><ele>169.57142857142858</ele><time>2026-04-25T13:17:14.999Z</time></trkpt><trkpt lat="46.07992837114734" lon="12.595166210265992"><ele>170.14285714285714</ele><time>2026-04-25T13:17:20.999Z</time></trkpt><trkpt lat="46.07986220038278" lon="12.595127920664547"><ele>170.71428571428572</ele><time>2026-04-25T13:17:25.999Z</time></trkpt><trkpt lat="46.07979822219197" lon="12.595105920122629"><ele>171.28571428571428</ele><time>2026-04-25T13:17:30.999Z</time></trkpt><trkpt lat="46.079735919076604" lon="12.595078879468316"><ele>171.85714285714286</ele><time>2026-04-25T13:17:35.999Z</time></trkpt><trkpt lat="46.0796713641661" lon="12.595040397880013"><ele>172.42857142857142</ele><time>2026-04-25T13:17:42Z</time></trkpt><trkpt lat="46.079606887780876" lon="12.595028832326634"><ele>173.0</ele><time>2026-04-25T13:17:48Z</time></trkpt><trkpt lat="46.079535533267695" lon="12.595002593866743"><ele>173.0</ele><time>2026-04-25T13:17:54Z</time></trkpt><trkpt lat="46.07947235116888" lon="12.59500221245478"><ele>173.0</ele><time>2026-04-25T13:18:00Z</time></trkpt><trkpt lat="46.079406443735444" lon="12.595043309232079"><ele>173.0</ele><time>2026-04-25T13:18:07Z</time></trkpt><trkpt lat="46.079374961932366" lon="12.595132194722483"><ele>173.0</ele><time>2026-04-25T13:18:13Z</time></trkpt><trkpt lat="46.07938406971515" lon="12.595225219468592"><ele>173.0</ele><time>2026-04-25T13:18:17Z</time></trkpt><trkpt lat="46.079404925760294" lon="12.595320916232579"><ele>173.0</ele><time>2026-04-25T13:18:23Z</time></trkpt><trkpt lat="46.079429278085" lon="12.595414728672482"><ele>173.0</ele><time>2026-04-25T13:18:28Z</time></trkpt><trkpt lat="46.07944123335302" lon="12.59551729994122"><ele>172.42857142857142</ele><time>2026-04-25T13:18:35Z</time></trkpt><trkpt lat="46.07946852188549" lon="12.595603018673147"><ele>171.85714285714286</ele><time>2026-04-25T13:18:40Z</time></trkpt><trkpt lat="46.07948403702647" lon="12.595698165965397"><ele>171.28571428571428</ele><time>2026-04-25T13:18:46Z</time></trkpt><trkpt lat="46.07949688423249" lon="12.595800835790527"><ele>170.71428571428572</ele><time>2026-04-25T13:18:51Z</time></trkpt><trkpt lat="46.07950471836177" lon="12.595908909308344"><ele>170.14285714285714</ele><time>2026-04-25T13:18:56Z</time></trkpt><trkpt lat="46.07948585424624" lon="12.596007713743886"><ele>169.57142857142858</ele><time>2026-04-25T13:19:02Z</time></trkpt><trkpt lat="46.07947928966856" lon="12.596121181100699"><ele>169.0</ele><time>2026-04-25T13:19:08.001Z</time></trkpt><trkpt lat="46.07944771694667" lon="12.596202650331655"><ele>168.71428571428572</ele><time>2026-04-25T13:19:14.001Z</time></trkpt><trkpt lat="46.07942000690804" lon="12.59629464770618"><ele>168.42857142857142</ele><time>2026-04-25T13:19:20.001Z</time></trkpt><trkpt lat="46.07939709130403" lon="12.596394739953038"><ele>168.14285714285714</ele><time>2026-04-25T13:19:26.999Z</time></trkpt><trkpt lat="46.079378472720826" lon="12.596490479891738"><ele>167.85714285714286</ele><time>2026-04-25T13:19:32.999Z</time></trkpt><trkpt lat="46.07935540533634" lon="12.596592345002255"><ele>167.57142857142858</ele><time>2026-04-25T13:19:40Z</time></trkpt><trkpt lat="46.07932764902434" lon="12.596678762430676"><ele>167.28571428571428</ele><time>2026-04-25T13:19:47Z</time></trkpt><trkpt lat="46.07930990567335" lon="12.596781215895739"><ele>167.0</ele><time>2026-04-25T13:19:54Z</time></trkpt><trkpt lat="46.07927803158628" lon="12.596865554367472"><ele>167.0</ele><time>2026-04-25T13:20:00Z</time></trkpt><trkpt lat="46.079214717752876" lon="12.596874374915636"><ele>167.0</ele><time>2026-04-25T13:20:08Z</time></trkpt><trkpt lat="46.07917944979532" lon="12.59679299250279"><ele>167.0</ele><time>2026-04-25T13:20:14Z</time></trkpt><trkpt lat="46.07915943432286" lon="12.596684744316548"><ele>167.0</ele><time>2026-04-25T13:20:19Z</time></trkpt><trkpt lat="46.079177148520586" lon="12.596588350779019"><ele>167.0</ele><time>2026-04-25T13:20:24Z</time></trkpt><trkpt lat="46.07919433284037" lon="12.596493597147417"><ele>167.0</ele><time>2026-04-25T13:20:30.001Z</time></trkpt><trkpt lat="46.0792062670725" lon="12.596400010332957"><ele>167.0</ele><time>2026-04-25T13:20:35.001Z</time></trkpt><trkpt lat="46.07922792672016" lon="12.59630282856755"><ele>167.0</ele><time>2026-04-25T13:20:40.001Z</time></trkpt><trkpt lat="46.07924565087367" lon="12.596211451217155"><ele>167.0</ele><time>2026-04-25T13:20:45.001Z</time></trkpt><trkpt lat="46.079276150417606" lon="12.596128496749005"><ele>167.0</ele><time>2026-04-25T13:20:51.001Z</time></trkpt><trkpt lat="46.079311836687765" lon="12.596031748863256"><ele>167.0</ele><time>2026-04-25T13:20:57.001Z</time></trkpt><trkpt lat="46.079344062531895" lon="12.59594736457883"><ele>167.0</ele><time>2026-04-25T13:21:03.001Z</time></trkpt><trkpt lat="46.07937488319948" lon="12.595853439861926"><ele>167.0</ele><time>2026-04-25T13:21:10.001Z</time></trkpt><trkpt lat="46.07938736042635" lon="12.595762614472884"><ele>167.0</ele><time>2026-04-25T13:21:16.001Z</time></trkpt><trkpt lat="46.07935242058169" lon="12.595676217785197"><ele>167.0</ele><time>2026-04-25T13:21:24.001Z</time></trkpt><trkpt lat="46.07928542650969" lon="12.595690554508412"><ele>167.0</ele><time>2026-04-25T13:21:29Z</time></trkpt><trkpt lat="46.07923652238696" lon="12.595763212881806"><ele>167.0</ele><time>2026-04-25T13:21:35Z</time></trkpt><trkpt lat="46.079198224691055" lon="12.595851841214612"><ele>167.0</ele><time>2026-04-25T13:21:42Z</time></trkpt><trkpt lat="46.07917089069063" lon="12.595937121871234"><ele>167.0</ele><time>2026-04-25T13:21:48Z</time></trkpt><trkpt lat="46.07914261465628" lon="12.596023523050421"><ele>167.0</ele><time>2026-04-25T13:21:54Z</time></trkpt><trkpt lat="46.07912716597284" lon="12.596118873004054"><ele>167.0</ele><time>2026-04-25T13:22:00Z</time></trkpt><trkpt lat="46.079107422706095" lon="12.596224432809361"><ele>167.14285714285714</ele><time>2026-04-25T13:22:06Z</time></trkpt><trkpt lat="46.07908143591569" lon="12.596327929289853"><ele>167.28571428571428</ele><time>2026-04-25T13:22:13.001Z</time></trkpt><trkpt lat="46.079047692418605" lon="12.596416626809951"><ele>167.42857142857144</ele><time>2026-04-25T13:22:19.001Z</time></trkpt><trkpt lat="46.07901022588303" lon="12.596503180411164"><ele>167.57142857142856</ele><time>2026-04-25T13:22:26.001Z</time></trkpt><trkpt lat="46.078969717031136" lon="12.596576332131788"><ele>167.71428571428572</ele><time>2026-04-25T13:22:32.001Z</time></trkpt><trkpt lat="46.07890340827101" lon="12.59656381744373"><ele>167.85714285714286</ele><time>2026-04-25T13:22:39Z</time></trkpt><trkpt lat="46.07887778454111" lon="12.59647994948033"><ele>168.0</ele><time>2026-04-25T13:22:46Z</time></trkpt><trkpt lat="46.078890149534935" lon="12.596389467475982"><ele>168.0</ele><time>2026-04-25T13:22:51Z</time></trkpt><trkpt lat="46.07888966198196" lon="12.59629482802348"><ele>168.0</ele><time>2026-04-25T13:23:06Z</time></trkpt><trkpt lat="46.07889980121208" lon="12.596393695217575"><ele>168.0</ele><time>2026-04-25T13:23:41.999Z</time></trkpt><trkpt lat="46.07890804360608" lon="12.596288050104258"><ele>168.0</ele><time>2026-04-25T13:24:59.001Z</time></trkpt><trkpt lat="46.07893057800214" lon="12.596201808322308"><ele>168.0</ele><time>2026-04-25T13:25:02.001Z</time></trkpt><trkpt lat="46.07896917139242" lon="12.596111420471315"><ele>168.0</ele><time>2026-04-25T13:25:08.001Z</time></trkpt><trkpt lat="46.07899476571909" lon="12.596021745481305"><ele>168.0</ele><time>2026-04-25T13:25:13.001Z</time></trkpt><trkpt lat="46.079031862341445" lon="12.595929170215529"><ele>168.14285714285714</ele><time>2026-04-25T13:25:20.001Z</time></trkpt><trkpt lat="46.07906887574512" lon="12.595837194006293"><ele>168.28571428571428</ele><time>2026-04-25T13:25:27.001Z</time></trkpt><trkpt lat="46.07910915492133" lon="12.595751252548357"><ele>168.42857142857144</ele><time>2026-04-25T13:25:34.001Z</time></trkpt><trkpt lat="46.07913779209191" lon="12.595663137506426"><ele>168.57142857142856</ele><time>2026-04-25T13:25:39Z</time></trkpt><trkpt lat="46.07916885891244" lon="12.595561674585456"><ele>168.71428571428572</ele><time>2026-04-25T13:25:45Z</time></trkpt><trkpt lat="46.079198662109285" lon="12.595471636994684"><ele>168.85714285714286</ele><time>2026-04-25T13:25:51Z</time></trkpt><trkpt lat="46.07920587427326" lon="12.595381135424565"><ele>169.0</ele><time>2026-04-25T13:25:57Z</time></trkpt><trkpt lat="46.079215079432196" lon="12.595277982361553"><ele>169.57142857142858</ele><time>2026-04-25T13:26:03Z</time></trkpt><trkpt lat="46.07922111541395" lon="12.595183704253136"><ele>170.14285714285714</ele><time>2026-04-25T13:26:08Z</time></trkpt><trkpt lat="46.079223183813745" lon="12.59508624590779"><ele>170.71428571428572</ele><time>2026-04-25T13:26:14Z</time></trkpt><trkpt lat="46.079218181342064" lon="12.594981089252762"><ele>171.28571428571428</ele><time>2026-04-25T13:26:20Z</time></trkpt><trkpt lat="46.07918514822288" lon="12.594903613763131"><ele>171.85714285714286</ele><time>2026-04-25T13:26:27Z</time></trkpt><trkpt lat="46.079113486434004" lon="12.594913257603556"><ele>172.42857142857142</ele><time>2026-04-25T13:26:36Z</time></trkpt><trkpt lat="46.07906034539686" lon="12.594989171153477"><ele>173.0</ele><time>2026-04-25T13:26:47.001Z</time></trkpt><trkpt lat="46.07904586468897" lon="12.595091029214174"><ele>172.57142857142856</ele><time>2026-04-25T13:26:53.001Z</time></trkpt><trkpt lat="46.07903601104734" lon="12.595187110109627"><ele>172.14285714285717</ele><time>2026-04-25T13:26:58.001Z</time></trkpt><trkpt lat="46.079008722493995" lon="12.59528177318742"><ele>171.71428571428572</ele><time>2026-04-25T13:27:04.001Z</time></trkpt><trkpt lat="46.078994234948574" lon="12.595379573049474"><ele>171.28571428571428</ele><time>2026-04-25T13:27:09.001Z</time></trkpt><trkpt lat="46.07897817177508" lon="12.595481733704137"><ele>170.85714285714283</ele><time>2026-04-25T13:27:14.001Z</time></trkpt><trkpt lat="46.078955423332104" lon="12.595579321259082"><ele>170.42857142857144</ele><time>2026-04-25T13:27:19.001Z</time></trkpt><trkpt lat="46.078923741368826" lon="12.595662895626461"><ele>170.0</ele><time>2026-04-25T13:27:24.001Z</time></trkpt><trkpt lat="46.0788933792836" lon="12.595756208748725"><ele>170.0</ele><time>2026-04-25T13:27:29.001Z</time></trkpt><trkpt lat="46.07886039798478" lon="12.595842369814843"><ele>170.0</ele><time>2026-04-25T13:27:34.001Z</time></trkpt><trkpt lat="46.07882443938092" lon="12.595920576417763"><ele>170.0</ele><time>2026-04-25T13:27:39.001Z</time></trkpt><trkpt lat="46.07879029323986" lon="12.596010896898626"><ele>170.0</ele><time>2026-04-25T13:27:45Z</time></trkpt><trkpt lat="46.07877168944211" lon="12.596098572762223"><ele>170.0</ele><time>2026-04-25T13:27:50Z</time></trkpt><trkpt lat="46.07874668208807" lon="12.59619985542926"><ele>170.0</ele><time>2026-04-25T13:27:56Z</time></trkpt><trkpt lat="46.07870277212477" lon="12.596280642558973"><ele>170.0</ele><time>2026-04-25T13:28:03Z</time></trkpt><trkpt lat="46.078644935807795" lon="12.5962326944758"><ele>170.0</ele><time>2026-04-25T13:28:09Z</time></trkpt><trkpt lat="46.078646231792966" lon="12.596132863912908"><ele>170.0</ele><time>2026-04-25T13:28:16Z</time></trkpt><trkpt lat="46.078670512729" lon="12.596043426905748"><ele>170.0</ele><time>2026-04-25T13:28:21Z</time></trkpt><trkpt lat="46.078697579942194" lon="12.595937962907454"><ele>170.0</ele><time>2026-04-25T13:28:27.001Z</time></trkpt><trkpt lat="46.07873038354403" lon="12.595841218266049"><ele>170.0</ele><time>2026-04-25T13:28:32.001Z</time></trkpt><trkpt lat="46.078759998047566" lon="12.595750277127943"><ele>170.0</ele><time>2026-04-25T13:28:38.001Z</time></trkpt><trkpt lat="46.07878462341772" lon="12.595643188608452"><ele>170.0</ele><time>2026-04-25T13:28:44.001Z</time></trkpt><trkpt lat="46.07881678638933" lon="12.59555738256921"><ele>170.0</ele><time>2026-04-25T13:28:50.001Z</time></trkpt><trkpt lat="46.07884441582861" lon="12.595461531035012"><ele>170.0</ele><time>2026-04-25T13:28:57.001Z</time></trkpt><trkpt lat="46.0788696824278" lon="12.595364079405158"><ele>170.0</ele><time>2026-04-25T13:29:03.001Z</time></trkpt><trkpt lat="46.07887760959795" lon="12.595253809215606"><ele>170.0</ele><time>2026-04-25T13:29:08.001Z</time></trkpt><trkpt lat="46.07888160666867" lon="12.59515917221694"><ele>170.0</ele><time>2026-04-25T13:29:13.001Z</time></trkpt><trkpt lat="46.07886830194861" lon="12.595065311764033"><ele>170.0</ele><time>2026-04-25T13:29:20.001Z</time></trkpt><trkpt lat="46.07883888339264" lon="12.594968693371106"><ele>170.0</ele><time>2026-04-25T13:29:28.001Z</time></trkpt><trkpt lat="46.0788366673382" lon="12.594850558042133"><ele>171.16666666666666</ele><time>2026-04-25T13:29:41.002Z</time></trkpt><trkpt lat="46.078844509155736" lon="12.594757145239306"><ele>172.33333333333331</ele><time>2026-04-25T13:29:42.002Z</time></trkpt><trkpt lat="46.07879016599365" lon="12.594860728523036"><ele>173.5</ele><time>2026-04-25T13:29:44.002Z</time></trkpt><trkpt lat="46.07874958488033" lon="12.594961044434791"><ele>174.66666666666666</ele><time>2026-04-25T13:29:45.002Z</time></trkpt><trkpt lat="46.07876212822152" lon="12.595062419016697"><ele>175.83333333333334</ele><time>2026-04-25T13:29:49.002Z</time></trkpt><trkpt lat="46.07871144688427" lon="12.595167102291189"><ele>177.0</ele><time>2026-04-25T13:29:57.999Z</time></trkpt><trkpt lat="46.07873114624167" lon="12.595260655979668"><ele>177.0</ele><time>2026-04-25T13:30:10.999Z</time></trkpt><trkpt lat="46.078732940578995" lon="12.59535194909906"><ele>177.0</ele><time>2026-04-25T13:30:16Z</time></trkpt><trkpt lat="46.07871544187076" lon="12.595441127545383"><ele>177.0</ele><time>2026-04-25T13:30:21Z</time></trkpt><trkpt lat="46.078650608066184" lon="12.595379008424677"><ele>177.0</ele><time>2026-04-25T13:30:30Z</time></trkpt><trkpt lat="46.07864966443352" lon="12.595285003755665"><ele>177.0</ele><time>2026-04-25T13:30:34Z</time></trkpt><trkpt lat="46.07865721707126" lon="12.595191061641248"><ele>177.0</ele><time>2026-04-25T13:30:38Z</time></trkpt><trkpt lat="46.07861136119124" lon="12.595118638891085"><ele>177.0</ele><time>2026-04-25T13:30:46Z</time></trkpt><trkpt lat="46.078577359569685" lon="12.59520826901582"><ele>177.0</ele><time>2026-04-25T13:30:56Z</time></trkpt><trkpt lat="46.07854557225038" lon="12.595315673120776"><ele>177.0</ele><time>2026-04-25T13:31:00Z</time></trkpt><trkpt lat="46.07853253018695" lon="12.595434390768663"><ele>177.0</ele><time>2026-04-25T13:31:05Z</time></trkpt><trkpt lat="46.07849879950977" lon="12.595522680970022"><ele>177.0</ele><time>2026-04-25T13:31:11Z</time></trkpt><trkpt lat="46.07848116441611" lon="12.595621379694924"><ele>177.0</ele><time>2026-04-25T13:31:16.001Z</time></trkpt><trkpt lat="46.07849082729643" lon="12.595712745927992"><ele>177.0</ele><time>2026-04-25T13:31:21.001Z</time></trkpt><trkpt lat="46.078564119659795" lon="12.595729697746219"><ele>177.0</ele><time>2026-04-25T13:31:27.001Z</time></trkpt><trkpt lat="46.07856405148801" lon="12.595821505100577"><ele>176.0</ele><time>2026-04-25T13:31:37.001Z</time></trkpt><trkpt lat="46.078521793587605" lon="12.595913721767662"><ele>175.0</ele><time>2026-04-25T13:31:46.001Z</time></trkpt><trkpt lat="46.07846082992548" lon="12.595967771612084"><ele>174.0</ele><time>2026-04-25T13:31:51.001Z</time></trkpt><trkpt lat="46.07840751664961" lon="12.596026049254911"><ele>173.0</ele><time>2026-04-25T13:31:56.999Z</time></trkpt><trkpt lat="46.0783448016891" lon="12.596095373885094"><ele>172.0</ele><time>2026-04-25T13:32:01.999Z</time></trkpt><trkpt lat="46.078292552123486" lon="12.596177044609844"><ele>171.0</ele><time>2026-04-25T13:32:07.999Z</time></trkpt><trkpt lat="46.078247248417014" lon="12.596258268115562"><ele>170.0</ele><time>2026-04-25T13:32:12.999Z</time></trkpt><trkpt lat="46.07819852598702" lon="12.596343076343592"><ele>169.2857142857143</ele><time>2026-04-25T13:32:18Z</time></trkpt><trkpt lat="46.0781458383692" lon="12.596412464542198"><ele>168.57142857142856</ele><time>2026-04-25T13:32:23Z</time></trkpt><trkpt lat="46.078082203896116" lon="12.596481505257909"><ele>167.85714285714286</ele><time>2026-04-25T13:32:29Z</time></trkpt><trkpt lat="46.07804949859134" lon="12.596570863291616"><ele>167.14285714285717</ele><time>2026-04-25T13:32:34Z</time></trkpt><trkpt lat="46.07801940953406" lon="12.596669655403547"><ele>166.42857142857144</ele><time>2026-04-25T13:32:39Z</time></trkpt><trkpt lat="46.077980874263346" lon="12.596750799904799"><ele>165.71428571428572</ele><time>2026-04-25T13:32:44Z</time></trkpt><trkpt lat="46.07795652384109" lon="12.596834494313114"><ele>165.0</ele><time>2026-04-25T13:32:50Z</time></trkpt><trkpt lat="46.077924469789004" lon="12.59692305897025"><ele>165.00000000000003</ele><time>2026-04-25T13:32:58Z</time></trkpt><trkpt lat="46.0779079516836" lon="12.597015565321799"><ele>165.0</ele><time>2026-04-25T13:33:03Z</time></trkpt><trkpt lat="46.077890789871624" lon="12.597104045720743"><ele>165.0</ele><time>2026-04-25T13:33:08Z</time></trkpt><trkpt lat="46.07786906446905" lon="12.597207028572123"><ele>165.0</ele><time>2026-04-25T13:33:15.001Z</time></trkpt><trkpt lat="46.077847330312295" lon="12.597301066662071"><ele>165.0</ele><time>2026-04-25T13:33:23.001Z</time></trkpt><trkpt lat="46.07783647473918" lon="12.597393693472995"><ele>165.00000000000003</ele><time>2026-04-25T13:33:29.001Z</time></trkpt><trkpt lat="46.07782375626733" lon="12.597492055293657"><ele>165.0</ele><time>2026-04-25T13:33:37.001Z</time></trkpt><trkpt lat="46.077822337221676" lon="12.597586928796389"><ele>165.00000000000003</ele><time>2026-04-25T13:33:41.001Z</time></trkpt><trkpt lat="46.07776136794572" lon="12.597625068477697"><ele>165.0</ele><time>2026-04-25T13:33:49.001Z</time></trkpt><trkpt lat="46.077709600518325" lon="12.597558514677546"><ele>165.0</ele><time>2026-04-25T13:33:54.001Z</time></trkpt><trkpt lat="46.07769662196869" lon="12.597449317466246"><ele>165.0</ele><time>2026-04-25T13:34:19Z</time></trkpt><trkpt lat="46.0777051013976" lon="12.59735374911371"><ele>165.0</ele><time>2026-04-25T13:34:24Z</time></trkpt><trkpt lat="46.07773469686829" lon="12.597267456276349"><ele>165.00000000000003</ele><time>2026-04-25T13:34:31Z</time></trkpt><trkpt lat="46.07769285108642" lon="12.597170072158104"><ele>165.0</ele><time>2026-04-25T13:34:36Z</time></trkpt><trkpt lat="46.07771126374077" lon="12.597066573330796"><ele>165.00000000000003</ele><time>2026-04-25T13:34:39Z</time></trkpt><trkpt lat="46.07772454882661" lon="12.596971377543442"><ele>165.0</ele><time>2026-04-25T13:34:43Z</time></trkpt><trkpt lat="46.07774050725354" lon="12.596882281496507"><ele>165.0</ele><time>2026-04-25T13:34:48Z</time></trkpt><trkpt lat="46.07777851435228" lon="12.596798922442371"><ele>165.0</ele><time>2026-04-25T13:35:03.001Z</time></trkpt><trkpt lat="46.07779774317515" lon="12.596708398835032"><ele>165.0</ele><time>2026-04-25T13:35:09.001Z</time></trkpt><trkpt lat="46.0778131955353" lon="12.596618163008669"><ele>165.00000000000003</ele><time>2026-04-25T13:35:18.001Z</time></trkpt><trkpt lat="46.07782781839358" lon="12.596523418971382"><ele>165.0</ele><time>2026-04-25T13:35:21.001Z</time></trkpt><trkpt lat="46.077835282930664" lon="12.596417594788038"><ele>165.00000000000003</ele><time>2026-04-25T13:35:27.001Z</time></trkpt><trkpt lat="46.07784328649375" lon="12.596315020536236"><ele>165.0</ele><time>2026-04-25T13:35:32.001Z</time></trkpt><trkpt lat="46.07786627376716" lon="12.596206569399987"><ele>165.0</ele><time>2026-04-25T13:35:37.001Z</time></trkpt><trkpt lat="46.077902886924406" lon="12.596131386966357"><ele>165.0</ele><time>2026-04-25T13:35:44.001Z</time></trkpt><trkpt lat="46.07796406252255" lon="12.596103777003073"><ele>165.0</ele><time>2026-04-25T13:35:50.001Z</time></trkpt><trkpt lat="46.07802777386746" lon="12.596057840513375"><ele>165.00000000000003</ele><time>2026-04-25T13:35:55.002Z</time></trkpt><trkpt lat="46.078093331754076" lon="12.59604599102765"><ele>165.0</ele><time>2026-04-25T13:36:02.002Z</time></trkpt><trkpt lat="46.07815864233815" lon="12.595987820878586"><ele>165.85714285714286</ele><time>2026-04-25T13:36:07.002Z</time></trkpt><trkpt lat="46.07820226301863" lon="12.595895557470545"><ele>166.71428571428572</ele><time>2026-04-25T13:36:14Z</time></trkpt><trkpt lat="46.078226063826484" lon="12.595808873765591"><ele>167.57142857142856</ele><time>2026-04-25T13:36:19Z</time></trkpt><trkpt lat="46.078241175919864" lon="12.595709380760997"><ele>168.42857142857144</ele><time>2026-04-25T13:36:25Z</time></trkpt><trkpt lat="46.07823862451707" lon="12.595617096029182"><ele>169.28571428571428</ele><time>2026-04-25T13:36:31Z</time></trkpt><trkpt lat="46.078212235748786" lon="12.595520555493497"><ele>170.14285714285714</ele><time>2026-04-25T13:36:46.001Z</time></trkpt><trkpt lat="46.07816618452186" lon="12.59545726188414"><ele>171.0</ele><time>2026-04-25T13:36:53.001Z</time></trkpt><trkpt lat="46.07807898283185" lon="12.595436430423856"><ele>170.99999999999997</ele><time>2026-04-25T13:36:58.001Z</time></trkpt><trkpt lat="46.07803520905524" lon="12.595511629264072"><ele>171.0</ele><time>2026-04-25T13:37:03.001Z</time></trkpt><trkpt lat="46.077984288537884" lon="12.595590988057332"><ele>171.0</ele><time>2026-04-25T13:37:11Z</time></trkpt><trkpt lat="46.0779548463511" lon="12.595680329939809"><ele>171.0</ele><time>2026-04-25T13:37:16Z</time></trkpt><trkpt lat="46.07792363229138" lon="12.595770470394228"><ele>171.0</ele><time>2026-04-25T13:37:21Z</time></trkpt><trkpt lat="46.07788283113806" lon="12.595849726265536"><ele>170.99999999999997</ele><time>2026-04-25T13:37:27Z</time></trkpt><trkpt lat="46.077863297124445" lon="12.595945468806118"><ele>171.0</ele><time>2026-04-25T13:37:33Z</time></trkpt><trkpt lat="46.07782929317036" lon="12.596032472807368"><ele>170.99999999999997</ele><time>2026-04-25T13:37:39.001Z</time></trkpt><trkpt lat="46.07777914492116" lon="12.596105787929917"><ele>171.0</ele><time>2026-04-25T13:37:46.001Z</time></trkpt><trkpt lat="46.077769529396626" lon="12.596196212354487"><ele>171.0</ele><time>2026-04-25T13:37:51.001Z</time></trkpt><trkpt lat="46.07775271002413" lon="12.596289185912225"><ele>171.0</ele><time>2026-04-25T13:37:56.001Z</time></trkpt><trkpt lat="46.07772951494756" lon="12.59637602759221"><ele>171.0</ele><time>2026-04-25T13:38:00.001Z</time></trkpt><trkpt lat="46.077702021902276" lon="12.596462779989121"><ele>170.99999999999997</ele><time>2026-04-25T13:38:05.001Z</time></trkpt><trkpt lat="46.07764049352234" lon="12.596518002048139"><ele>171.0</ele><time>2026-04-25T13:38:10.001Z</time></trkpt><trkpt lat="46.07758205596584" lon="12.596451029491467"><ele>171.28571428571428</ele><time>2026-04-25T13:38:17.999Z</time></trkpt><trkpt lat="46.07754075073512" lon="12.596364787463123"><ele>171.57142857142856</ele><time>2026-04-25T13:38:22.999Z</time></trkpt><trkpt lat="46.07750013763199" lon="12.596277681729456"><ele>171.85714285714283</ele><time>2026-04-25T13:38:27.999Z</time></trkpt><trkpt lat="46.077475575441305" lon="12.59619243465567"><ele>172.14285714285714</ele><time>2026-04-25T13:38:32.999Z</time></trkpt><trkpt lat="46.077430706830185" lon="12.596109997933205"><ele>172.42857142857144</ele><time>2026-04-25T13:38:40Z</time></trkpt><trkpt lat="46.07738653437491" lon="12.596026246890965"><ele>172.7142857142857</ele><time>2026-04-25T13:38:46Z</time></trkpt><trkpt lat="46.07735649726577" lon="12.59594214357849"><ele>173.0</ele><time>2026-04-25T13:38:52Z</time></trkpt><trkpt lat="46.07731842305705" lon="12.59585630712082"><ele>173.0</ele><time>2026-04-25T13:38:59Z</time></trkpt><trkpt lat="46.077331333765" lon="12.595762572093497"><ele>173.0</ele><time>2026-04-25T13:39:06Z</time></trkpt><trkpt lat="46.07739454503833" lon="12.595805099555932"><ele>173.0</ele><time>2026-04-25T13:39:16Z</time></trkpt><trkpt lat="46.07742817730532" lon="12.59588516707534"><ele>173.0</ele><time>2026-04-25T13:39:27.001Z</time></trkpt><trkpt lat="46.077474866728245" lon="12.595959905885817"><ele>173.0</ele><time>2026-04-25T13:39:33.001Z</time></trkpt><trkpt lat="46.077512355280085" lon="12.596042390500939"><ele>173.0</ele><time>2026-04-25T13:39:39.001Z</time></trkpt><trkpt lat="46.07758338708301" lon="12.596039241614346"><ele>173.0</ele><time>2026-04-25T13:39:47.001Z</time></trkpt><trkpt lat="46.07764390521822" lon="12.596006653178094"><ele>172.7142857142857</ele><time>2026-04-25T13:39:51.001Z</time></trkpt><trkpt lat="46.07769002067966" lon="12.595923308339028"><ele>172.42857142857144</ele><time>2026-04-25T13:39:57.001Z</time></trkpt><trkpt lat="46.07771806666141" lon="12.595823521471491"><ele>172.14285714285714</ele><time>2026-04-25T13:40:03.001Z</time></trkpt><trkpt lat="46.07772571439484" lon="12.595729670323966"><ele>171.85714285714283</ele><time>2026-04-25T13:40:07.001Z</time></trkpt><trkpt lat="46.07773966124529" lon="12.595621285154628"><ele>171.57142857142856</ele><time>2026-04-25T13:40:12.001Z</time></trkpt><trkpt lat="46.07773811679498" lon="12.595524480643695"><ele>171.28571428571428</ele><time>2026-04-25T13:40:19.001Z</time></trkpt><trkpt lat="46.07770682555379" lon="12.595433538693378"><ele>171.0</ele><time>2026-04-25T13:40:26Z</time></trkpt><trkpt lat="46.07768561829867" lon="12.595344698925429"><ele>170.99999999999997</ele><time>2026-04-25T13:40:36Z</time></trkpt><trkpt lat="46.07761197154922" lon="12.595339096124277"><ele>171.0</ele><time>2026-04-25T13:40:43Z</time></trkpt><trkpt lat="46.07754331375401" lon="12.5953401689296"><ele>171.0</ele><time>2026-04-25T13:40:49Z</time></trkpt><trkpt lat="46.07747106925243" lon="12.59535267799119"><ele>171.0</ele><time>2026-04-25T13:40:53Z</time></trkpt><trkpt lat="46.077406642782435" lon="12.59537600419209"><ele>171.0</ele><time>2026-04-25T13:41:00Z</time></trkpt><trkpt lat="46.07733472630879" lon="12.595389627897482"><ele>170.99999999999997</ele><time>2026-04-25T13:41:05Z</time></trkpt><trkpt lat="46.077288947105984" lon="12.595481735007692"><ele>171.0</ele><time>2026-04-25T13:41:11Z</time></trkpt><trkpt lat="46.07722891476222" lon="12.595516325206743"><ele>171.33333333333334</ele><time>2026-04-25T13:41:23.001Z</time></trkpt><trkpt lat="46.07715560014907" lon="12.595546727838329"><ele>171.66666666666666</ele><time>2026-04-25T13:41:28.001Z</time></trkpt><trkpt lat="46.07709289895425" lon="12.595506401345945"><ele>172.0</ele><time>2026-04-25T13:41:32.001Z</time></trkpt><trkpt lat="46.07707074518419" lon="12.595595388331564"><ele>172.33333333333331</ele><time>2026-04-25T13:41:36.001Z</time></trkpt><trkpt lat="46.07700597351174" lon="12.595506229107059"><ele>172.66666666666666</ele><time>2026-04-25T13:41:39.001Z</time></trkpt><trkpt lat="46.07696584751628" lon="12.59560625372169"><ele>173.0</ele><time>2026-04-25T13:41:45.001Z</time></trkpt><trkpt lat="46.0769781692294" lon="12.59571237801873"><ele>173.0</ele><time>2026-04-25T13:41:57.001Z</time></trkpt><trkpt lat="46.07696456243339" lon="12.595808064464563"><ele>173.0</ele><time>2026-04-25T13:42:01.001Z</time></trkpt><trkpt lat="46.076933659260995" lon="12.595890601123587"><ele>173.0</ele><time>2026-04-25T13:42:11.002Z</time></trkpt><trkpt lat="46.07687812367243" lon="12.595964368749375"><ele>173.0</ele><time>2026-04-25T13:42:16.002Z</time></trkpt><trkpt lat="46.076806282480725" lon="12.595975463158908"><ele>173.0</ele><time>2026-04-25T13:42:19.002Z</time></trkpt><trkpt lat="46.07675305515577" lon="12.596033620835271"><ele>173.0</ele><time>2026-04-25T13:42:24.002Z</time></trkpt><trkpt lat="46.076682719510266" lon="12.596025935875636"><ele>173.0</ele><time>2026-04-25T13:42:30Z</time></trkpt><trkpt lat="46.076614292548676" lon="12.596063784130004"><ele>173.0</ele><time>2026-04-25T13:42:34Z</time></trkpt><trkpt lat="46.07656396970457" lon="12.595987853977924"><ele>173.0</ele><time>2026-04-25T13:42:38Z</time></trkpt><trkpt lat="46.07661195468519" lon="12.596111294176982"><ele>173.0</ele><time>2026-04-25T13:42:42Z</time></trkpt><trkpt lat="46.07654850178374" lon="12.596043754152824"><ele>173.0</ele><time>2026-04-25T13:42:45Z</time></trkpt><trkpt lat="46.0764950248457" lon="12.596099560058189"><ele>173.0</ele><time>2026-04-25T13:42:47Z</time></trkpt><trkpt lat="46.07639335935571" lon="12.596059848967299"><ele>173.0</ele><time>2026-04-25T13:42:48Z</time></trkpt><trkpt lat="46.07637712399159" lon="12.596149153548982"><ele>171.66666666666666</ele><time>2026-04-25T13:42:57Z</time></trkpt><trkpt lat="46.07645338817707" lon="12.59623097396175"><ele>170.33333333333331</ele><time>2026-04-25T13:43:02.001Z</time></trkpt><trkpt lat="46.07651271884927" lon="12.59626840874157"><ele>169.0</ele><time>2026-04-25T13:43:04.001Z</time></trkpt><trkpt lat="46.07658400254202" lon="12.596315889238012"><ele>167.66666666666666</ele><time>2026-04-25T13:43:13.001Z</time></trkpt><trkpt lat="46.07662643298058" lon="12.596407280263879"><ele>166.33333333333334</ele><time>2026-04-25T13:43:19.001Z</time></trkpt><trkpt lat="46.07665497934278" lon="12.596512299997794"><ele>165.0</ele><time>2026-04-25T13:43:27.001Z</time></trkpt><trkpt lat="46.07670583274702" lon="12.596584104387022"><ele>165.00000000000003</ele><time>2026-04-25T13:43:31.001Z</time></trkpt><trkpt lat="46.07679417191776" lon="12.596558924471125"><ele>165.0</ele><time>2026-04-25T13:43:35.001Z</time></trkpt><trkpt lat="46.07685785174749" lon="12.596550926857622"><ele>165.0</ele><time>2026-04-25T13:43:39.001Z</time></trkpt><trkpt lat="46.076920395994044" lon="12.596563217768109"><ele>165.0</ele><time>2026-04-25T13:43:44.001Z</time></trkpt><trkpt lat="46.076992383812794" lon="12.596562487488898"><ele>165.0</ele><time>2026-04-25T13:43:48.001Z</time></trkpt><trkpt lat="46.077068257853696" lon="12.59658696599206"><ele>165.00000000000003</ele><time>2026-04-25T13:43:54.002Z</time></trkpt><trkpt lat="46.07712852715116" lon="12.596542160117659"><ele>165.0</ele><time>2026-04-25T13:44:00.002Z</time></trkpt><trkpt lat="46.07715347354452" lon="12.596442209360731"><ele>165.00000000000003</ele><time>2026-04-25T13:44:07.002Z</time></trkpt><trkpt lat="46.07715746460757" lon="12.596340680709776"><ele>165.0</ele><time>2026-04-25T13:44:14.001Z</time></trkpt><trkpt lat="46.07716958386329" lon="12.596223399395544"><ele>165.0</ele><time>2026-04-25T13:44:20.001Z</time></trkpt><trkpt lat="46.07716553584774" lon="12.596125857933329"><ele>165.0</ele><time>2026-04-25T13:44:24.001Z</time></trkpt><trkpt lat="46.077133142249984" lon="12.596040903641244"><ele>165.0</ele><time>2026-04-25T13:44:28.001Z</time></trkpt><trkpt lat="46.07708636612109" lon="12.595961113779857"><ele>165.00000000000003</ele><time>2026-04-25T13:44:32.999Z</time></trkpt><trkpt lat="46.0770608936191" lon="12.595877997967778"><ele>165.0</ele><time>2026-04-25T13:44:36.999Z</time></trkpt><trkpt lat="46.07707071604415" lon="12.595774053852653"><ele>165.0</ele><time>2026-04-25T13:44:41.999Z</time></trkpt><trkpt lat="46.077134858088215" lon="12.595844873149433"><ele>165.0</ele><time>2026-04-25T13:44:58.999Z</time></trkpt><trkpt lat="46.07715249474302" lon="12.595948790289789"><ele>165.0</ele><time>2026-04-25T13:45:02Z</time></trkpt><trkpt lat="46.0771749836174" lon="12.596038500534679"><ele>165.0</ele><time>2026-04-25T13:45:04Z</time></trkpt><trkpt lat="46.077209785205305" lon="12.596164299035527"><ele>165.0</ele><time>2026-04-25T13:45:08Z</time></trkpt><trkpt lat="46.077236086110915" lon="12.596254197659842"><ele>165.0</ele><time>2026-04-25T13:45:14Z</time></trkpt><trkpt lat="46.07726325686237" lon="12.596342569700095"><ele>165.00000000000003</ele><time>2026-04-25T13:45:19Z</time></trkpt><trkpt lat="46.077319133393104" lon="12.596412335843114"><ele>165.0</ele><time>2026-04-25T13:45:24Z</time></trkpt><trkpt lat="46.077372683646566" lon="12.596495086203563"><ele>165.0</ele><time>2026-04-25T13:45:29Z</time></trkpt><trkpt lat="46.077429985371964" lon="12.596569480599952"><ele>165.0</ele><time>2026-04-25T13:45:34Z</time></trkpt><trkpt lat="46.07748064048468" lon="12.59663181426768"><ele>165.0</ele><time>2026-04-25T13:45:40Z</time></trkpt><trkpt lat="46.07752812637474" lon="12.596712558294472"><ele>165.00000000000003</ele><time>2026-04-25T13:45:47.001Z</time></trkpt><trkpt lat="46.077559415577184" lon="12.59680363897285"><ele>165.0</ele><time>2026-04-25T13:45:56.001Z</time></trkpt><trkpt lat="46.07755723503764" lon="12.596905523662207"><ele>165.00000000000003</ele><time>2026-04-25T13:46:01.001Z</time></trkpt><trkpt lat="46.07749423243793" lon="12.596940327460459"><ele>165.0</ele><time>2026-04-25T13:46:08.001Z</time></trkpt><trkpt lat="46.07742736083279" lon="12.596978121883831"><ele>165.0</ele><time>2026-04-25T13:46:14.001Z</time></trkpt><trkpt lat="46.077362143591785" lon="12.597014955450634"><ele>165.0</ele><time>2026-04-25T13:46:19.001Z</time></trkpt><trkpt lat="46.07729453971806" lon="12.597060115937742"><ele>165.0</ele><time>2026-04-25T13:46:24.001Z</time></trkpt><trkpt lat="46.077222289301744" lon="12.597074198329842"><ele>165.00000000000003</ele><time>2026-04-25T13:46:30.002Z</time></trkpt><trkpt lat="46.077189320609435" lon="12.59717493548307"><ele>165.0</ele><time>2026-04-25T13:46:37.999Z</time></trkpt><trkpt lat="46.077152312850586" lon="12.597261799451166"><ele>165.00000000000003</ele><time>2026-04-25T13:46:41.999Z</time></trkpt><trkpt lat="46.077104157312" lon="12.597351281732397"><ele>165.0</ele><time>2026-04-25T13:46:46.999Z</time></trkpt><trkpt lat="46.07704792043805" lon="12.597411617373822"><ele>165.0</ele><time>2026-04-25T13:46:51.999Z</time></trkpt><trkpt lat="46.07699554307218" lon="12.597480394154022"><ele>165.0</ele><time>2026-04-25T13:46:58Z</time></trkpt><trkpt lat="46.07693060191218" lon="12.5974716503926"><ele>165.0</ele><time>2026-04-25T13:47:04Z</time></trkpt><trkpt lat="46.076905152723505" lon="12.597372411527315"><ele>165.00000000000003</ele><time>2026-04-25T13:47:08Z</time></trkpt><trkpt lat="46.07685285830117" lon="12.59728244936831"><ele>165.0</ele><time>2026-04-25T13:47:17Z</time></trkpt><trkpt lat="46.07689611399637" lon="12.59720682038885"><ele>165.00000000000003</ele><time>2026-04-25T13:47:23Z</time></trkpt><trkpt lat="46.07694025595767" lon="12.59713497334081"><ele>165.0</ele><time>2026-04-25T13:47:29Z</time></trkpt><trkpt lat="46.07698964215462" lon="12.597074006225712"><ele>165.0</ele><time>2026-04-25T13:47:34.001Z</time></trkpt><trkpt lat="46.077046445910476" lon="12.597001098383641"><ele>165.0</ele><time>2026-04-25T13:47:41.001Z</time></trkpt><trkpt lat="46.07710020141772" lon="12.596945337981529"><ele>165.0</ele><time>2026-04-25T13:47:47.001Z</time></trkpt><trkpt lat="46.07711463901402" lon="12.596837362804077"><ele>165.00000000000003</ele><time>2026-04-25T13:47:55.001Z</time></trkpt><trkpt lat="46.07706217987601" lon="12.596764441224774"><ele>165.0</ele><time>2026-04-25T13:48:01.001Z</time></trkpt><trkpt lat="46.077000441045804" lon="12.596736523220999"><ele>165.00000000000003</ele><time>2026-04-25T13:48:05.001Z</time></trkpt><trkpt lat="46.07694358225065" lon="12.596689142688527"><ele>165.0</ele><time>2026-04-25T13:48:11.001Z</time></trkpt><trkpt lat="46.076879315403296" lon="12.596672869897631"><ele>165.0</ele><time>2026-04-25T13:48:16.002Z</time></trkpt><trkpt lat="46.07681519210463" lon="12.596635826238431"><ele>165.0</ele><time>2026-04-25T13:48:22.002Z</time></trkpt><trkpt lat="46.07675503698581" lon="12.596599656139874"><ele>165.0</ele><time>2026-04-25T13:48:29.002Z</time></trkpt><trkpt lat="46.07669729105567" lon="12.596549921281468"><ele>165.00000000000003</ele><time>2026-04-25T13:48:35.002Z</time></trkpt><trkpt lat="46.07665794460748" lon="12.596477724242863"><ele>165.0</ele><time>2026-04-25T13:48:40.002Z</time></trkpt><trkpt lat="46.07659990289108" lon="12.596401708690227"><ele>165.00000000000003</ele><time>2026-04-25T13:48:45Z</time></trkpt><trkpt lat="46.07657052719659" lon="12.596317441307441"><ele>165.0</ele><time>2026-04-25T13:48:49Z</time></trkpt><trkpt lat="46.076551615787764" lon="12.596224280639904"><ele>165.0</ele><time>2026-04-25T13:48:54Z</time></trkpt><trkpt lat="46.07654653068797" lon="12.596115349696962"><ele>165.0</ele><time>2026-04-25T13:49:01Z</time></trkpt><trkpt lat="46.07652976963991" lon="12.596004405679494"><ele>165.0</ele><time>2026-04-25T13:49:07Z</time></trkpt><trkpt lat="46.076565719586746" lon="12.595922766261037"><ele>165.00000000000003</ele><time>2026-04-25T13:49:13Z</time></trkpt><trkpt lat="46.076522393836655" lon="12.595812751470316"><ele>165.0</ele><time>2026-04-25T13:49:26.001Z</time></trkpt><trkpt lat="46.0764786242797" lon="12.59571649530985"><ele>167.0</ele><time>2026-04-25T13:49:31.001Z</time></trkpt><trkpt lat="46.076419405698495" lon="12.595616570270709"><ele>169.0</ele><time>2026-04-25T13:49:36.001Z</time></trkpt><trkpt lat="46.07636614785404" lon="12.595554511145902"><ele>171.0</ele><time>2026-04-25T13:49:43.001Z</time></trkpt><trkpt lat="46.076349834271426" lon="12.59544709230306"><ele>173.0</ele><time>2026-04-25T13:49:47.001Z</time></trkpt><trkpt lat="46.076527190974566" lon="12.59544960969559"><ele>175.0</ele><time>2026-04-25T13:50:00.001Z</time></trkpt><trkpt lat="46.07662223875595" lon="12.59527103798256"><ele>175.0</ele><time>2026-04-25T13:50:05.002Z</time></trkpt><trkpt lat="46.07662797222766" lon="12.595170095368198"><ele>175.0</ele><time>2026-04-25T13:50:08.002Z</time></trkpt><trkpt lat="46.07658027522787" lon="12.595243449050484"><ele>175.0</ele><time>2026-04-25T13:50:09.002Z</time></trkpt><trkpt lat="46.07656914177462" lon="12.59538083950578"><ele>175.0</ele><time>2026-04-25T13:50:11.002Z</time></trkpt><trkpt lat="46.0766068536695" lon="12.595497313020148"><ele>175.0</ele><time>2026-04-25T13:50:13.002Z</time></trkpt><trkpt lat="46.076635037061905" lon="12.59560691748349"><ele>175.0</ele><time>2026-04-25T13:50:15.002Z</time></trkpt><trkpt lat="46.07662613122341" lon="12.595712967684891"><ele>174.5</ele><time>2026-04-25T13:50:16.002Z</time></trkpt><trkpt lat="46.0766613984681" lon="12.5958565586576"><ele>174.0</ele><time>2026-04-25T13:50:17.002Z</time></trkpt><trkpt lat="46.07665109995418" lon="12.596014332112675"><ele>173.5</ele><time>2026-04-25T13:50:19.002Z</time></trkpt><trkpt lat="46.076643608790796" lon="12.59623114256687"><ele>173.0</ele><time>2026-04-25T13:50:21.002Z</time></trkpt><trkpt lat="46.07665365655378" lon="12.596362459441329"><ele>171.66666666666666</ele><time>2026-04-25T13:50:22.002Z</time></trkpt><trkpt lat="46.07657423162626" lon="12.596525564135511"><ele>170.33333333333331</ele><time>2026-04-25T13:50:24.002Z</time></trkpt><trkpt lat="46.07652310434988" lon="12.596588230199776"><ele>169.0</ele><time>2026-04-25T13:50:36.002Z</time></trkpt><trkpt lat="46.07646436555732" lon="12.596672107983506"><ele>167.66666666666666</ele><time>2026-04-25T13:50:37.002Z</time></trkpt><trkpt lat="46.07645686056283" lon="12.59658020909964"><ele>166.33333333333334</ele><time>2026-04-25T13:50:44.002Z</time></trkpt><trkpt lat="46.07646718367327" lon="12.59648846199127"><ele>165.0</ele><time>2026-04-25T13:50:47.003Z</time></trkpt><trkpt lat="46.07646312958176" lon="12.596338547451078"><ele>165.0</ele><time>2026-04-25T13:50:55.001Z</time></trkpt><trkpt lat="46.07642792525968" lon="12.596256250227809"><ele>165.0</ele><time>2026-04-25T13:51:45.001Z</time></trkpt><trkpt lat="46.07643975913503" lon="12.596148510351684"><ele>165.0</ele><time>2026-04-25T13:51:48.001Z</time></trkpt><trkpt lat="46.07639836910717" lon="12.596072426643351"><ele>165.0</ele><time>2026-04-25T13:51:54.001Z</time></trkpt><trkpt lat="46.0763105154092" lon="12.596025279298658"><ele>165.0</ele><time>2026-04-25T13:52:07.001Z</time></trkpt><trkpt lat="46.076297033399676" lon="12.596124611646534"><ele>165.0</ele><time>2026-04-25T13:52:14.001Z</time></trkpt><trkpt lat="46.07634414618469" lon="12.596214333008861"><ele>165.00000000000003</ele><time>2026-04-25T13:52:19.001Z</time></trkpt><trkpt lat="46.076372816468705" lon="12.596301957631217"><ele>165.0</ele><time>2026-04-25T13:52:23.001Z</time></trkpt><trkpt lat="46.07641418259395" lon="12.596379372936953"><ele>165.0</ele><time>2026-04-25T13:52:31.002Z</time></trkpt><trkpt lat="46.07645562535747" lon="12.596461875712258"><ele>165.0</ele><time>2026-04-25T13:52:40.002Z</time></trkpt><trkpt lat="46.07651138285057" lon="12.59651669201569"><ele>165.0</ele><time>2026-04-25T13:52:45.002Z</time></trkpt><trkpt lat="46.0765747412645" lon="12.596554161515236"><ele>165.00000000000003</ele><time>2026-04-25T13:52:49.002Z</time></trkpt><trkpt lat="46.076618103496436" lon="12.596629733105512"><ele>165.0</ele><time>2026-04-25T13:52:55.002Z</time></trkpt><trkpt lat="46.07667798174984" lon="12.596675301737017"><ele>165.00000000000003</ele><time>2026-04-25T13:53:00.001Z</time></trkpt><trkpt lat="46.07673248519843" lon="12.59672108351088"><ele>165.0</ele><time>2026-04-25T13:53:04.001Z</time></trkpt><trkpt lat="46.07679485681204" lon="12.59678267353331"><ele>165.0</ele><time>2026-04-25T13:53:09.001Z</time></trkpt><trkpt lat="46.07683839137062" lon="12.59685868475232"><ele>165.0</ele><time>2026-04-25T13:53:14.001Z</time></trkpt><trkpt lat="46.076785470159415" lon="12.596913115247354"><ele>165.0</ele><time>2026-04-25T13:53:20.001Z</time></trkpt><trkpt lat="46.07672433385673" lon="12.596855655183331"><ele>165.00000000000003</ele><time>2026-04-25T13:53:25.001Z</time></trkpt><trkpt lat="46.07666535066832" lon="12.596807113847486"><ele>165.0</ele><time>2026-04-25T13:53:30.001Z</time></trkpt><trkpt lat="46.07658905337266" lon="12.596792066132215"><ele>165.00000000000003</ele><time>2026-04-25T13:53:37.001Z</time></trkpt><trkpt lat="46.07652078530699" lon="12.596816668292664"><ele>165.0</ele><time>2026-04-25T13:53:43.001Z</time></trkpt><trkpt lat="46.07645550502527" lon="12.59684197710898"><ele>165.0</ele><time>2026-04-25T13:53:48.001Z</time></trkpt><trkpt lat="46.07640242259335" lon="12.59689761012128"><ele>165.0</ele><time>2026-04-25T13:53:54.001Z</time></trkpt><trkpt lat="46.07634826926435" lon="12.596946083150968"><ele>165.0</ele><time>2026-04-25T13:53:59.001Z</time></trkpt><trkpt lat="46.076298828415844" lon="12.597004930455347"><ele>165.00000000000003</ele><time>2026-04-25T13:54:05.001Z</time></trkpt><trkpt lat="46.07624003806084" lon="12.597054227522925"><ele>165.0</ele><time>2026-04-25T13:54:11.002Z</time></trkpt><trkpt lat="46.076183740289885" lon="12.59711112133105"><ele>164.71428571428572</ele><time>2026-04-25T13:54:16.002Z</time></trkpt><trkpt lat="46.0761390887789" lon="12.597178621445469"><ele>164.42857142857144</ele><time>2026-04-25T13:54:22.002Z</time></trkpt><trkpt lat="46.076081572306926" lon="12.59723091845463"><ele>164.14285714285717</ele><time>2026-04-25T13:54:28.002Z</time></trkpt><trkpt lat="46.076086845605396" lon="12.59732411020804"><ele>163.85714285714286</ele><time>2026-04-25T13:54:33.002Z</time></trkpt><trkpt lat="46.07613740231563" lon="12.597386897950322"><ele>163.57142857142856</ele><time>2026-04-25T13:54:38.002Z</time></trkpt><trkpt lat="46.07620948671146" lon="12.59736529437327"><ele>163.2857142857143</ele><time>2026-04-25T13:54:45.002Z</time></trkpt><trkpt lat="46.07626965891408" lon="12.597309638192883"><ele>163.0</ele><time>2026-04-25T13:54:51.002Z</time></trkpt><trkpt lat="46.07632324207656" lon="12.59724545280184"><ele>163.0</ele><time>2026-04-25T13:54:56.002Z</time></trkpt><trkpt lat="46.07637120440412" lon="12.597179886570467"><ele>163.0</ele><time>2026-04-25T13:55:01.003Z</time></trkpt><trkpt lat="46.07643004309707" lon="12.597115117083163"><ele>163.0</ele><time>2026-04-25T13:55:07.001Z</time></trkpt><trkpt lat="46.07649383584058" lon="12.597083013220738"><ele>163.0</ele><time>2026-04-25T13:55:13.001Z</time></trkpt><trkpt lat="46.07655433302437" lon="12.5971174990778"><ele>163.0</ele><time>2026-04-25T13:55:21.001Z</time></trkpt><trkpt lat="46.07658055913802" lon="12.597202779420599"><ele>163.0</ele><time>2026-04-25T13:55:27.001Z</time></trkpt><trkpt lat="46.07658739373733" lon="12.597304201605654"><ele>163.0</ele><time>2026-04-25T13:55:34.001Z</time></trkpt><trkpt lat="46.076606105224634" lon="12.597397034491507"><ele>165.0</ele><time>2026-04-25T13:55:39.001Z</time></trkpt><trkpt lat="46.07660892436262" lon="12.597500992674016"><ele>165.0</ele><time>2026-04-25T13:55:45.001Z</time></trkpt><trkpt lat="46.07658615640832" lon="12.59760234707896"><ele>163.0</ele><time>2026-04-25T13:55:51.001Z</time></trkpt><trkpt lat="46.07653040656073" lon="12.597674182741933"><ele>163.0</ele><time>2026-04-25T13:55:58.001Z</time></trkpt><trkpt lat="46.076460187578895" lon="12.597690132499269"><ele>163.0</ele><time>2026-04-25T13:56:04.002Z</time></trkpt><trkpt lat="46.07639282476251" lon="12.597677966025103"><ele>163.0</ele><time>2026-04-25T13:56:10.002Z</time></trkpt><trkpt lat="46.07631460071827" lon="12.597671565566635"><ele>163.0</ele><time>2026-04-25T13:56:17.002Z</time></trkpt></trkseg></trk></gpx>